Stacja Pogody Warszawa Praga Północ 


Stacja Pogody
Warszawa Praga Północ

 Szerokość N 52° 15 '43"    Długość E 21° 01' 22"    Wysokość 89 m n.p.m.


Wschód Słońca 06:16 Górowanie Słońca 12:40 Zachód Słońca 19:04 baran
Data juliańska 2457112.024 Odległość Słońca 149378398 km Średn. kątowa Słońca 0,320°
Wschód Księżyca 14:07 Zachód Księżyca 04:03 Wiek Księżyca 10 dni Moon
Widoczność Księżyca 79,50% Odległość Księżyca 402683 km Średn. kątowa Księżyca 0,297°
Dzień krótszy od najdłuższego o: 03:59 Długość dnia 12:47 Imieniny Anieli, Kwiryna, Leonarda




Warunki pogodowe uaktualnione 30-03-2015, o godzinie 12:26
Temperatura 7.8 °C ↓ Temperatura odczuwalna -0.9 °C
Punkt rosy 3.8 °C Humidex 6.7 °C
Deszcz na godzinę 0.0 mm Wilgotność względna 76% ↑
Prędkość wiatru (średnia) 14 km/h → Prędkość wiatru (podmuch) 38 km/h
Kierunek wiatru SSE Skala Beaufort'a 5
Średni przepływ wiatru w ciągu ostatniej godziny 13 km
Ciśnienie względne  989 hPa Trend ciśnienia powolny wzrost
Ciśnienie bezwzględne  976 hPa Podstawa chmur 573.6 m
METAR EPWA 301030Z 26013KT 210V290 9999 FEW037CB SCT043 09/02 Q0989 NOSIG





 a

Valid XHTML 1.0 Transitional Valid CSS!